Latest Coastal Weather Observations for Wadeye (Port Keats)

IDD60701

Issued at 6:51 pm CST Thursday 23 November 2017 (issued every 10 minutes, with the page automatically refreshed every 10 minutes)

About coastal observations | Map of coastal stations | Coastal observations for NT | Marine services | Other Formats
Station Details ID: 014948 Name: PORT KEATS AIRPORT Lat: -14.25 Lon: 129.53 Height: 28.0 m
Data from the previous 72 hours. | See also: Recent months at Wadeye (Port Keats)
Date/Time
CST
Temp
°C
Wind Pressure Rain since
9am
mm
Weather Cloud Vis
km
Sea
Height
m
Swell
Dir  Spd
kts
Gust
kts
hPa Trend Height
m
Period
s
Dir
23/06:30pm 27.7 N 9 13 1004.4 - 0.2 - - - - - - -
23/06:00pm 28.0 NE 7 11 1004.6 - 0.2 - - - - - - -
23/05:30pm 27.8 E 9 13 1005.0 - 0.2 - - - - - - -
23/05:00pm 28.2 E 11 17 1005.3 - 0.2 - - - - - - -
23/04:30pm 28.0 ENE 6 11 1004.3 - 0.2 - - - - - - -
23/04:00pm 28.1 NE 5 8 1004.4 - 0.2 - - - - - - -
23/03:30pm 27.4 SE 10 13 1004.2 - 0.0 - - - - - - -
23/03:26pm 28.2 SE 10 14 1004.5 - 0.0 - - - - - - -
23/03:00pm 33.3 WNW 7 11 1003.9 - 0.0 - - - - - - -
23/02:30pm 33.0 WNW 8 12 1003.5 - 0.0 - - - - - - -
23/02:00pm 32.9 WNW 9 13 1004.0 - 0.0 - - - - - - -
23/01:30pm 32.5 WNW 8 12 1004.7 - 0.0 - - - - - - -
23/01:00pm 33.5 WNW 7 10 1005.0 - 0.0 - - - - - - -
23/12:30pm 32.4 WNW 8 13 1005.3 - 0.0 - - - - - - -
23/12:00pm 32.2 WNW 8 13 1005.6 - 0.0 - - - - - - -
23/11:30am 32.4 NW 7 9 1006.0 - 0.0 - - - - - - -
23/11:00am 32.2 WNW 7 10 1006.2 - 0.0 - - - - - - -
23/10:30am 31.5 WNW 6 9 1006.5 - 0.0 - - - - - - -
23/10:00am 31.2 NNW 5 8 1006.7 - 0.0 - - - - - - -
23/09:30am 29.9 N 6 8 1006.6 - 0.0 - - - - - - -
23/09:00am 29.7 N 3 6 1006.4 - 0.0 - - - - - - -
23/08:30am 28.4 NNE 4 6 1006.2 - 0.0 - - - - - - -
23/08:00am 28.1 NE 3 4 1006.2 - 0.0 - - - - - - -
23/07:30am 26.6 ENE 5 8 1006.2 - 0.0 - - - - - - -
23/07:00am 26.2 E 6 8 1006.2 - 0.0 - - - - - - -
23/06:30am 25.7 E 5 7 1005.8 - 0.0 - - - - - - -
23/06:00am 25.9 E 4 5 1005.6 - 0.0 - - - - - - -
23/05:30am 26.2 NNE 5 6 1005.3 - 0.0 - - - - - - -
23/05:00am 26.4 NE 5 6 1005.2 - 0.0 - - - - - - -
23/04:30am 26.4 NNE 5 7 1004.6 - 0.0 - - - - - - -
23/04:00am 26.4 ENE 6 8 1004.6 - 0.0 - - - - - - -
23/03:30am 26.7 E 6 7 1004.5 - 0.0 - - - - - - -
23/03:00am 27.1 CALM 0 0 1004.3 - 0.0 - - - - - - -
23/02:30am 27.3 CALM 0 0 1004.4 - 0.0 - - - - - - -
23/02:00am 27.9 CALM 0 0 1004.3 - 0.0 - - - - - - -
23/01:30am 28.1 NNW 2 4 1004.9 - 0.0 - - - - - - -
23/01:00am 28.7 N 3 4 1005.4 - 0.0 - - - - - - -
23/12:30am 28.6 NW 3 4 1005.5 - 0.0 - - - - - - -
23/12:00am 29.0 NW 4 7 1005.6 - 0.0 - - - - - - -
 
Date/Time
CST
Temp
°C
Wind Pressure Rain since
9am
mm
Weather Cloud Vis
km
Sea
Height
m
Swell
Dir  Spd
kts
Gust
kts
hPa Trend Height
m
Period
s
Dir
22/11:30pm 28.7 WNW 4 7 1005.5 - 0.0 - - - - - - -
22/11:00pm 29.1 NNW 5 6 1005.7 - 0.0 - - - - - - -
22/10:30pm 29.1 NNW 4 6 1005.7 - 0.0 - - - - - - -
22/10:00pm 28.8 N 3 5 1005.6 - 0.0 - - - - - - -
22/09:30pm 28.1 CALM 0 0 1005.8 - 0.0 - - - - - - -
22/09:00pm 28.6 NW 4 6 1005.3 - 0.0 - - - - - - -
22/08:30pm 29.3 NNE 3 5 1005.2 - 0.0 - - - - - - -
22/08:00pm 29.4 NNE 5 6 1004.9 - 0.0 - - - - - - -
22/07:30pm 29.7 N 5 7 1004.3 - 0.0 - - - - - - -
22/07:00pm 30.1 NNW 6 8 1004.1 - 0.0 - - - - - - -
22/06:30pm 30.3 NW 6 8 1003.7 - 0.0 - - - - - - -
22/06:00pm 30.9 NW 7 9 1003.5 - 0.0 - - - - - - -
22/05:30pm 30.8 WNW 6 8 1003.1 - 0.0 - - - - - - -
22/05:00pm 31.5 WNW 7 11 1002.8 - 0.0 - - - - - - -
22/04:30pm 31.9 WNW 7 11 1002.6 - 0.0 - - - - - - -
22/04:00pm 31.9 NW 9 13 1002.7 - 0.0 - - - - - - -
22/03:30pm 32.6 WNW 9 12 1003.0 - 0.0 - - - - - - -
22/03:00pm 33.0 NNW 10 13 1003.4 - 0.0 - - - - - - -
22/02:30pm 33.5 NW 9 14 1003.5 - 0.0 - - - - - - -
22/02:00pm 33.0 NNW 8 11 1003.9 - 0.0 - - - - - - -
22/01:30pm 32.5 NNW 6 9 1004.5 - 0.0 - - - - - - -
22/01:00pm 32.3 NW 4 8 1005.1 - 0.0 - - - - - - -
22/12:30pm 32.3 NNW 5 10 1005.7 - 0.0 - - - - - - -
22/12:00pm 31.4 WSW 3 6 1006.1 - 0.0 - - - - - - -
22/11:30am 30.2 W 4 6 1006.6 - 0.0 - - - - - - -
22/11:00am 28.8 SW 4 5 1006.7 - 0.0 - - - - - - -
22/10:30am 28.6 SSW 3 7 1006.8 - 0.0 - - - - - - -
22/10:00am 28.7 SSW 5 7 1007.1 - 0.0 - - - - - - -
22/09:30am 29.5 CALM 0 4 1007.0 - 0.0 - - - - - - -
22/09:00am 30.1 SSE 1 4 1007.0 - 0.0 - - - - - - -
22/08:30am 28.6 E 4 5 1006.7 - 0.0 - - - - - - -
22/08:00am 28.5 E 4 5 1006.8 - 0.0 - - - - - - -
22/07:30am 28.2 CALM 0 0 1006.7 - 0.0 - - - - - - -
22/07:00am 27.2 ESE 3 4 1006.5 - 0.0 - - - - - - -
22/06:30am 26.3 SE 4 5 1006.2 - 0.0 - - - - - - -
22/06:00am 25.5 SE 4 4 1005.5 - 0.0 - - - - - - -
22/05:30am 25.6 CALM 0 0 1004.8 - 0.0 - - - - - - -
22/05:00am 25.2 CALM 0 0 1004.9 - 0.0 - - - - - - -
22/04:30am 24.8 WSW 2 3 1004.6 - 0.0 - - - - - - -
22/04:00am 25.2 CALM 0 3 1004.6 - 0.0 - - - - - - -
22/03:30am 25.6 CALM 0 0 1004.5 - 0.0 - - - - - - -
22/03:00am 26.8 ESE 4 5 1004.5 - 0.0 - - - - - - -
22/02:30am 26.8 ESE 5 7 1004.9 - 0.0 - - - - - - -
22/02:00am 26.5 SE 8 11 1005.5 - 0.0 - - - - - - -
22/01:30am 25.9 CALM 0 0 1005.3 - 0.0 - - - - - - -
22/01:00am 26.1 CALM 0 0 1005.5 - 0.0 - - - - - - -
22/12:30am 26.0 SW 1 4 1006.3 - 0.0 - - - - - - -
22/12:00am 26.6 CALM 0 0 1006.5 - 0.0 - - - - - - -
 
Date/Time
CST
Temp
°C
Wind Pressure Rain since
9am
mm
Weather Cloud Vis
km
Sea
Height
m
Swell
Dir  Spd
kts
Gust
kts
hPa Trend Height
m
Period
s
Dir
21/11:30pm 26.5 SE 7 10 1007.0 - 0.0 - - - - - - -
21/11:00pm 26.1 SE 3 5 1006.4 - 0.0 - - - - - - -
21/10:30pm 25.9 SW 3 5 1005.7 - 0.0 - - - - - - -
21/10:00pm 26.3 CALM 0 0 1005.4 - 0.0 - - - - - - -
21/09:30pm 26.6 NW 1 4 1005.6 - 0.0 - - - - - - -
21/09:00pm 27.1 NNE 1 3 1005.8 - 0.0 - - - - - - -
21/08:30pm 27.2 E 4 7 1006.3 - 0.0 - - - - - - -
21/08:00pm 27.7 E 7 10 1006.3 - 0.0 - - - - - - -
21/07:30pm 29.3 ESE 8 13 1006.3 - 0.0 - - - - - - -
21/07:00pm 30.5 CALM 0 3 1005.7 - 0.0 - - - - - - -
21/06:30pm 30.8 N 4 6 1005.6 - 0.0 - - - - - - -
21/06:00pm 31.2 N 5 6 1004.9 - 0.0 - - - - - - -
21/05:30pm 31.4 NW 4 6 1004.4 - 0.0 - - - - - - -
21/05:00pm 31.6 WNW 3 7 1004.2 - 0.0 - - - - - - -
21/04:30pm 31.3 ENE 1 5 1004.0 - 0.0 - - - - - - -
21/04:00pm 30.0 E 3 5 1004.5 - 0.0 - - - - - - -
21/03:30pm 30.7 E 6 9 1005.1 - 0.0 - - - - - - -
21/03:00pm 29.5 ESE 9 11 1005.4 - 0.0 - - - - - - -
21/02:30pm 29.7 ESE 10 12 1005.2 - 0.0 - - - - - - -
21/02:00pm 30.2 NNE 6 9 1005.8 - 0.0 - - - - - - -
21/01:30pm 32.5 WSW 5 9 1006.0 - 0.0 - - - - - - -
21/01:00pm 32.6 SW 6 9 1006.2 - 0.0 - - - - - - -
21/12:30pm 33.2 S 3 6 1006.8 - 0.0 - - - - - - -
21/12:00pm 33.2 W 4 7 1007.6 - 0.0 - - - - - - -
21/11:30am 32.4 SW 6 11 1008.0 - 0.0 - - - - - - -
21/11:00am 31.2 SW 5 10 1008.5 - 0.0 - - - - - - -
21/10:30am 30.1 S 3 6 1008.8 - 0.0 - - - - - - -
21/10:00am 28.5 S 5 7 1009.0 - 0.0 - - - - - - -
21/09:30am 28.7 S 1 5 1008.9 - 0.0 - - - - - - -
21/09:00am 28.8 SW 3 7 1008.4 - 0.0 - - - - - - -
21/08:30am 28.6 SSW 2 5 1008.4 - 0.0 - - - - - - -
21/08:00am 27.4 CALM 0 1 1008.7 - 0.0 - - - - - - -
21/07:30am 27.2 S 1 3 1008.2 - 0.0 - - - - - - -
21/07:00am 26.5 S 2 4 1007.8 - 0.0 - - - - - - -
21/06:30am 25.7 S 3 5 1007.1 - 0.0 - - - - - - -
21/06:00am 25.4 CALM 0 0 1006.6 - 0.0 - - - - - - -
21/05:30am 25.4 CALM 0 0 1006.4 - 0.0 - - - - - - -
21/05:00am 25.2 CALM 0 0 1006.4 - 0.0 - - - - - - -
21/04:30am 25.7 CALM 0 4 1006.2 - 0.0 - - - - - - -
21/04:00am 26.0 CALM 0 1 1006.1 - 0.0 - - - - - - -
21/03:30am 26.2 ENE 3 4 1005.8 - 0.0 - - - - - - -
21/03:00am 26.0 CALM 0 3 1005.9 - 0.0 - - - - - - -
21/02:30am 26.9 N 1 4 1006.2 - 0.0 - - - - - - -
21/02:00am 27.2 N 6 7 1006.5 - 0.0 - - - - - - -
21/01:30am 28.0 NNE 9 12 1007.2 - 0.0 - - - - - - -
21/01:00am 28.9 N 15 22 1007.8 - 0.0 - - - - - - -
21/12:53am 29.3 N 10 22 1007.8 - 0.0 - - - - - - -
21/12:30am 29.7 NNW 7 8 1007.8 - 0.0 - - - - - - -
21/12:00am 30.0 NNW 7 9 1008.1 - 0.0 - - - - - - -
 
Date/Time
CST
Temp
°C
Wind Pressure Rain since
9am
mm
Weather Cloud Vis
km
Sea
Height
m
Swell
Dir  Spd
kts
Gust
kts
hPa Trend Height
m
Period
s
Dir
20/11:30pm 29.9 NW 6 10 1008.1 - 0.0 - - - - - - -
20/11:00pm 30.0 NW 7 9 1008.5 - 0.0 - - - - - - -
20/10:30pm 29.3 WNW 4 6 1007.8 - 0.0 - - - - - - -
20/10:00pm 29.4 NW 4 6 1007.3 - 0.0 - - - - - - -
20/09:30pm 29.8 NW 4 6 1007.4 - 0.0 - - - - - - -
20/09:00pm 30.0 NNW 3 5 1007.0 - 0.0 - - - - - - -
20/08:30pm 30.5 NNW 4 5 1006.5 - 0.0 - - - - - - -
20/08:00pm 30.4 WNW 2 4 1005.9 - 0.0 - - - - - - -
20/07:30pm 30.6 WNW 3 4 1005.6 - 0.0 - - - - - - -
20/07:00pm 31.4 NW 4 6 1005.6 - 0.0 - - - - - - -

Other Formats:

Comma delimited format used in spreadsheet applications
http://www.bom.gov.au/fwo/IDD60701/IDD60701.95111.axf

JavaScript Object Notation format (JSON) in row-major order
http://www.bom.gov.au/fwo/IDD60701/IDD60701.95111.json